sensor_id;sensor_type;location;lat;lon;timestamp;P1;durP1;ratioP1;P2;durP2;ratioP2
23302;SDS011;11820;48.738;9.092;2023-02-21T00:01:14;2.70;;;1.70;;
23302;SDS011;11820;48.738;9.092;2023-02-21T00:03:59;3.87;;;1.90;;
23302;SDS011;11820;48.738;9.092;2023-02-21T00:06:43;7.47;;;2.00;;
23302;SDS011;11820;48.738;9.092;2023-02-21T00:09:27;4.47;;;2.00;;
23302;SDS011;11820;48.738;9.092;2023-02-21T00:12:11;3.63;;;2.20;;
23302;SDS011;11820;48.738;9.092;2023-02-21T00:14:55;4.60;;;1.80;;
23302;SDS011;11820;48.738;9.092;2023-02-21T00:17:39;7.03;;;1.90;;
23302;SDS011;11820;48.738;9.092;2023-02-21T00:20:23;3.77;;;2.10;;
23302;SDS011;11820;48.738;9.092;2023-02-21T00:23:06;4.37;;;1.53;;
23302;SDS011;11820;48.738;9.092;2023-02-21T00:25:50;7.30;;;1.93;;
23302;SDS011;11820;48.738;9.092;2023-02-21T00:28:34;3.00;;;1.87;;
23302;SDS011;11820;48.738;9.092;2023-02-21T00:31:18;2.80;;;1.63;;
23302;SDS011;11820;48.738;9.092;2023-02-21T00:34:02;7.43;;;1.90;;
23302;SDS011;11820;48.738;9.092;2023-02-21T00:36:46;3.10;;;1.77;;
23302;SDS011;11820;48.738;9.092;2023-02-21T00:39:30;5.33;;;2.67;;
23302;SDS011;11820;48.738;9.092;2023-02-21T00:42:14;3.37;;;1.73;;
23302;SDS011;11820;48.738;9.092;2023-02-21T00:44:58;2.97;;;2.00;;
23302;SDS011;11820;48.738;9.092;2023-02-21T00:47:42;4.17;;;1.80;;
23302;SDS011;11820;48.738;9.092;2023-02-21T00:50:26;4.40;;;2.00;;
23302;SDS011;11820;48.738;9.092;2023-02-21T00:53:10;6.77;;;1.77;;
23302;SDS011;11820;48.738;9.092;2023-02-21T00:55:54;4.57;;;1.60;;
23302;SDS011;11820;48.738;9.092;2023-02-21T00:58:37;2.30;;;1.60;;
23302;SDS011;11820;48.738;9.092;2023-02-21T01:01:21;4.67;;;1.80;;
23302;SDS011;11820;48.738;9.092;2023-02-21T01:04:05;3.50;;;2.07;;
23302;SDS011;11820;48.738;9.092;2023-02-21T01:06:49;4.30;;;2.00;;
23302;SDS011;11820;48.738;9.092;2023-02-21T01:09:33;3.90;;;1.83;;
23302;SDS011;11820;48.738;9.092;2023-02-21T01:12:17;4.40;;;1.73;;
23302;SDS011;11820;48.738;9.092;2023-02-21T01:15:01;2.83;;;1.70;;
23302;SDS011;11820;48.738;9.092;2023-02-21T01:17:46;4.30;;;1.50;;
23302;SDS011;11820;48.738;9.092;2023-02-21T01:20:30;5.00;;;2.17;;
23302;SDS011;11820;48.738;9.092;2023-02-21T01:23:14;4.90;;;1.90;;
23302;SDS011;11820;48.738;9.092;2023-02-21T01:25:58;6.77;;;2.70;;
23302;SDS011;11820;48.738;9.092;2023-02-21T01:28:42;3.63;;;1.90;;
23302;SDS011;11820;48.738;9.092;2023-02-21T01:31:26;3.10;;;1.80;;
23302;SDS011;11820;48.738;9.092;2023-02-21T01:34:10;3.47;;;1.67;;
23302;SDS011;11820;48.738;9.092;2023-02-21T01:36:54;4.30;;;2.20;;
23302;SDS011;11820;48.738;9.092;2023-02-21T01:39:37;3.43;;;1.70;;
23302;SDS011;11820;48.738;9.092;2023-02-21T01:42:21;6.10;;;1.73;;
23302;SDS011;11820;48.738;9.092;2023-02-21T01:48:12;3.57;;;1.90;;
23302;SDS011;11820;48.738;9.092;2023-02-21T01:51:01;2.83;;;1.90;;
23302;SDS011;11820;48.738;9.092;2023-02-21T01:53:47;3.00;;;1.83;;
23302;SDS011;11820;48.738;9.092;2023-02-21T01:56:32;3.67;;;1.97;;
23302;SDS011;11820;48.738;9.092;2023-02-21T01:59:16;2.87;;;1.87;;
23302;SDS011;11820;48.738;9.092;2023-02-21T02:02:03;3.50;;;1.90;;
23302;SDS011;11820;48.738;9.092;2023-02-21T02:05:00;3.97;;;2.03;;
23302;SDS011;11820;48.738;9.092;2023-02-21T02:07:47;3.33;;;2.30;;
23302;SDS011;11820;48.738;9.092;2023-02-21T02:10:31;2.33;;;2.10;;
23302;SDS011;11820;48.738;9.092;2023-02-21T02:13:24;3.07;;;1.80;;
23302;SDS011;11820;48.738;9.092;2023-02-21T02:15:57;5.37;;;1.90;;
23302;SDS011;11820;48.738;9.092;2023-02-21T02:18:43;2.90;;;1.80;;
23302;SDS011;11820;48.738;9.092;2023-02-21T02:27:03;6.30;;;2.10;;
23302;SDS011;11820;48.738;9.092;2023-02-21T02:37:54;2.97;;;2.00;;
23302;SDS011;11820;48.738;9.092;2023-02-21T02:40:33;4.47;;;1.80;;
23302;SDS011;11820;48.738;9.092;2023-02-21T02:48:15;3.43;;;1.70;;
23302;SDS011;11820;48.738;9.092;2023-02-21T02:50:46;3.37;;;1.67;;
23302;SDS011;11820;48.738;9.092;2023-02-21T02:53:18;3.87;;;1.83;;
23302;SDS011;11820;48.738;9.092;2023-02-21T02:58:15;5.13;;;1.70;;
23302;SDS011;11820;48.738;9.092;2023-02-21T03:00:43;5.20;;;1.87;;
23302;SDS011;11820;48.738;9.092;2023-02-21T03:05:53;5.43;;;1.80;;
23302;SDS011;11820;48.738;9.092;2023-02-21T03:11:18;2.63;;;1.80;;
23302;SDS011;11820;48.738;9.092;2023-02-21T03:16:23;3.50;;;1.87;;
23302;SDS011;11820;48.738;9.092;2023-02-21T03:21:28;5.37;;;1.63;;
23302;SDS011;11820;48.738;9.092;2023-02-21T03:23:59;4.23;;;1.57;;
23302;SDS011;11820;48.738;9.092;2023-02-21T03:26:28;4.63;;;1.80;;
23302;SDS011;11820;48.738;9.092;2023-02-21T03:28:57;2.10;;;1.60;;
23302;SDS011;11820;48.738;9.092;2023-02-21T03:31:23;1.87;;;1.40;;
23302;SDS011;11820;48.738;9.092;2023-02-21T03:33:52;4.43;;;1.70;;
23302;SDS011;11820;48.738;9.092;2023-02-21T03:36:17;4.00;;;1.63;;
23302;SDS011;11820;48.738;9.092;2023-02-21T03:38:44;2.47;;;1.47;;
23302;SDS011;11820;48.738;9.092;2023-02-21T03:41:09;1.80;;;1.60;;
23302;SDS011;11820;48.738;9.092;2023-02-21T03:43:36;2.70;;;1.83;;
23302;SDS011;11820;48.738;9.092;2023-02-21T03:46:01;3.97;;;1.53;;
23302;SDS011;11820;48.738;9.092;2023-02-21T03:48:27;4.13;;;2.27;;
23302;SDS011;11820;48.738;9.092;2023-02-21T03:50:52;5.20;;;1.90;;
23302;SDS011;11820;48.738;9.092;2023-02-21T03:53:18;1.83;;;1.60;;
23302;SDS011;11820;48.738;9.092;2023-02-21T03:55:43;5.30;;;1.80;;
23302;SDS011;11820;48.738;9.092;2023-02-21T03:58:08;2.73;;;2.00;;
23302;SDS011;11820;48.738;9.092;2023-02-21T04:00:34;3.40;;;1.80;;
23302;SDS011;11820;48.738;9.092;2023-02-21T04:02:59;4.20;;;2.07;;
23302;SDS011;11820;48.738;9.092;2023-02-21T04:05:24;3.33;;;1.43;;
23302;SDS011;11820;48.738;9.092;2023-02-21T04:07:49;3.50;;;1.83;;
23302;SDS011;11820;48.738;9.092;2023-02-21T04:10:15;2.33;;;1.77;;
23302;SDS011;11820;48.738;9.092;2023-02-21T04:12:40;3.43;;;1.60;;
23302;SDS011;11820;48.738;9.092;2023-02-21T04:15:06;6.07;;;1.77;;
23302;SDS011;11820;48.738;9.092;2023-02-21T04:17:31;3.93;;;1.77;;
23302;SDS011;11820;48.738;9.092;2023-02-21T04:19:57;3.03;;;1.80;;
23302;SDS011;11820;48.738;9.092;2023-02-21T04:22:22;4.43;;;1.60;;
23302;SDS011;11820;48.738;9.092;2023-02-21T04:24:47;3.23;;;1.57;;
23302;SDS011;11820;48.738;9.092;2023-02-21T04:27:13;2.83;;;1.80;;
23302;SDS011;11820;48.738;9.092;2023-02-21T04:29:39;3.10;;;2.10;;
23302;SDS011;11820;48.738;9.092;2023-02-21T04:32:04;4.90;;;1.70;;
23302;SDS011;11820;48.738;9.092;2023-02-21T04:34:29;5.43;;;1.37;;
23302;SDS011;11820;48.738;9.092;2023-02-21T04:36:55;2.07;;;1.60;;
23302;SDS011;11820;48.738;9.092;2023-02-21T04:39:20;3.47;;;1.77;;
23302;SDS011;11820;48.738;9.092;2023-02-21T04:41:45;4.40;;;1.93;;
23302;SDS011;11820;48.738;9.092;2023-02-21T04:44:11;2.23;;;1.47;;
23302;SDS011;11820;48.738;9.092;2023-02-21T04:46:37;3.67;;;1.80;;
23302;SDS011;11820;48.738;9.092;2023-02-21T04:49:02;1.80;;;1.50;;
23302;SDS011;11820;48.738;9.092;2023-02-21T04:51:27;3.33;;;2.07;;
23302;SDS011;11820;48.738;9.092;2023-02-21T04:53:53;5.30;;;3.17;;
23302;SDS011;11820;48.738;9.092;2023-02-21T04:56:20;5.60;;;2.43;;
23302;SDS011;11820;48.738;9.092;2023-02-21T04:58:47;3.33;;;2.20;;
23302;SDS011;11820;48.738;9.092;2023-02-21T05:01:14;3.43;;;1.80;;
23302;SDS011;11820;48.738;9.092;2023-02-21T05:03:40;5.13;;;1.80;;
23302;SDS011;11820;48.738;9.092;2023-02-21T05:06:06;3.63;;;1.90;;
23302;SDS011;11820;48.738;9.092;2023-02-21T05:08:31;2.27;;;1.80;;
23302;SDS011;11820;48.738;9.092;2023-02-21T05:10:57;2.07;;;1.57;;
23302;SDS011;11820;48.738;9.092;2023-02-21T05:13:22;3.57;;;1.73;;
23302;SDS011;11820;48.738;9.092;2023-02-21T05:15:47;3.87;;;1.50;;
23302;SDS011;11820;48.738;9.092;2023-02-21T05:18:13;4.57;;;1.90;;
23302;SDS011;11820;48.738;9.092;2023-02-21T05:20:46;3.90;;;1.90;;
23302;SDS011;11820;48.738;9.092;2023-02-21T05:23:12;3.83;;;1.70;;
23302;SDS011;11820;48.738;9.092;2023-02-21T05:25:41;5.67;;;1.60;;
23302;SDS011;11820;48.738;9.092;2023-02-21T05:28:07;6.53;;;1.87;;
23302;SDS011;11820;48.738;9.092;2023-02-21T05:30:32;3.13;;;1.77;;
23302;SDS011;11820;48.738;9.092;2023-02-21T05:32:57;3.03;;;1.83;;
23302;SDS011;11820;48.738;9.092;2023-02-21T05:35:23;4.53;;;2.53;;
23302;SDS011;11820;48.738;9.092;2023-02-21T05:37:48;5.67;;;2.50;;
23302;SDS011;11820;48.738;9.092;2023-02-21T05:40:14;3.83;;;2.13;;
23302;SDS011;11820;48.738;9.092;2023-02-21T05:42:41;3.67;;;2.10;;
23302;SDS011;11820;48.738;9.092;2023-02-21T05:45:07;5.57;;;1.93;;
23302;SDS011;11820;48.738;9.092;2023-02-21T05:47:33;3.97;;;1.87;;
23302;SDS011;11820;48.738;9.092;2023-02-21T05:49:59;2.33;;;1.50;;
23302;SDS011;11820;48.738;9.092;2023-02-21T05:52:25;4.90;;;1.73;;
23302;SDS011;11820;48.738;9.092;2023-02-21T05:54:51;3.83;;;2.27;;
23302;SDS011;11820;48.738;9.092;2023-02-21T05:57:17;3.00;;;2.00;;
23302;SDS011;11820;48.738;9.092;2023-02-21T05:59:43;4.87;;;2.10;;
23302;SDS011;11820;48.738;9.092;2023-02-21T06:02:12;10.17;;;4.80;;
23302;SDS011;11820;48.738;9.092;2023-02-21T06:04:37;6.40;;;2.43;;
23302;SDS011;11820;48.738;9.092;2023-02-21T06:07:02;6.03;;;3.40;;
23302;SDS011;11820;48.738;9.092;2023-02-21T06:09:28;5.83;;;2.80;;
23302;SDS011;11820;48.738;9.092;2023-02-21T06:11:55;3.00;;;2.70;;
23302;SDS011;11820;48.738;9.092;2023-02-21T06:14:21;5.47;;;2.03;;
23302;SDS011;11820;48.738;9.092;2023-02-21T06:16:46;6.13;;;2.73;;
23302;SDS011;11820;48.738;9.092;2023-02-21T06:19:12;7.27;;;2.43;;
23302;SDS011;11820;48.738;9.092;2023-02-21T06:21:40;3.87;;;1.90;;
23302;SDS011;11820;48.738;9.092;2023-02-21T06:24:06;5.17;;;2.43;;
23302;SDS011;11820;48.738;9.092;2023-02-21T06:26:31;7.50;;;3.10;;
23302;SDS011;11820;48.738;9.092;2023-02-21T06:28:57;3.80;;;2.37;;
23302;SDS011;11820;48.738;9.092;2023-02-21T06:31:22;6.43;;;2.13;;
23302;SDS011;11820;48.738;9.092;2023-02-21T06:33:48;4.73;;;2.07;;
23302;SDS011;11820;48.738;9.092;2023-02-21T06:36:16;6.03;;;2.17;;
23302;SDS011;11820;48.738;9.092;2023-02-21T06:38:44;3.43;;;1.97;;
23302;SDS011;11820;48.738;9.092;2023-02-21T06:41:15;4.37;;;2.17;;
23302;SDS011;11820;48.738;9.092;2023-02-21T06:43:42;3.60;;;2.67;;
23302;SDS011;11820;48.738;9.092;2023-02-21T06:46:07;6.93;;;2.57;;
23302;SDS011;11820;48.738;9.092;2023-02-21T06:48:33;6.27;;;2.40;;
23302;SDS011;11820;48.738;9.092;2023-02-21T06:50:58;4.27;;;2.53;;
23302;SDS011;11820;48.738;9.092;2023-02-21T06:53:23;3.70;;;2.40;;
23302;SDS011;11820;48.738;9.092;2023-02-21T06:55:49;3.20;;;1.70;;
23302;SDS011;11820;48.738;9.092;2023-02-21T06:58:14;2.37;;;1.83;;
23302;SDS011;11820;48.738;9.092;2023-02-21T07:00:39;8.63;;;3.00;;
23302;SDS011;11820;48.738;9.092;2023-02-21T07:03:05;4.30;;;2.87;;
23302;SDS011;11820;48.738;9.092;2023-02-21T07:05:30;2.90;;;2.10;;
23302;SDS011;11820;48.738;9.092;2023-02-21T07:07:59;6.67;;;2.70;;
23302;SDS011;11820;48.738;9.092;2023-02-21T07:10:25;6.00;;;2.77;;
23302;SDS011;11820;48.738;9.092;2023-02-21T07:12:50;4.13;;;2.27;;
23302;SDS011;11820;48.738;9.092;2023-02-21T07:15:16;5.53;;;2.00;;
23302;SDS011;11820;48.738;9.092;2023-02-21T07:17:41;7.47;;;2.70;;
23302;SDS011;11820;48.738;9.092;2023-02-21T07:20:07;6.73;;;2.90;;
23302;SDS011;11820;48.738;9.092;2023-02-21T07:22:33;6.60;;;2.77;;
23302;SDS011;11820;48.738;9.092;2023-02-21T07:24:58;3.97;;;2.47;;
23302;SDS011;11820;48.738;9.092;2023-02-21T07:27:24;4.33;;;2.60;;
23302;SDS011;11820;48.738;9.092;2023-02-21T07:29:50;3.80;;;3.00;;
23302;SDS011;11820;48.738;9.092;2023-02-21T07:32:16;5.23;;;3.03;;
23302;SDS011;11820;48.738;9.092;2023-02-21T07:34:42;8.63;;;3.90;;
23302;SDS011;11820;48.738;9.092;2023-02-21T07:37:07;6.13;;;3.30;;
23302;SDS011;11820;48.738;9.092;2023-02-21T07:39:33;6.73;;;3.90;;
23302;SDS011;11820;48.738;9.092;2023-02-21T07:41:59;6.83;;;3.73;;
23302;SDS011;11820;48.738;9.092;2023-02-21T07:44:25;8.03;;;3.53;;
23302;SDS011;11820;48.738;9.092;2023-02-21T07:46:50;5.13;;;2.60;;
23302;SDS011;11820;48.738;9.092;2023-02-21T07:49:15;3.67;;;2.53;;
23302;SDS011;11820;48.738;9.092;2023-02-21T07:51:41;6.33;;;2.93;;
23302;SDS011;11820;48.738;9.092;2023-02-21T07:54:06;5.43;;;2.60;;
23302;SDS011;11820;48.738;9.092;2023-02-21T07:56:31;6.00;;;2.67;;
23302;SDS011;11820;48.738;9.092;2023-02-21T07:58:56;5.33;;;2.43;;
23302;SDS011;11820;48.738;9.092;2023-02-21T08:01:23;3.50;;;2.10;;
23302;SDS011;11820;48.738;9.092;2023-02-21T08:03:49;3.67;;;2.53;;
23302;SDS011;11820;48.738;9.092;2023-02-21T08:06:15;6.37;;;2.20;;
23302;SDS011;11820;48.738;9.092;2023-02-21T08:08:40;4.80;;;2.23;;
23302;SDS011;11820;48.738;9.092;2023-02-21T08:11:06;6.37;;;2.40;;
23302;SDS011;11820;48.738;9.092;2023-02-21T08:13:31;5.93;;;2.70;;
23302;SDS011;11820;48.738;9.092;2023-02-21T08:15:56;5.57;;;2.60;;
23302;SDS011;11820;48.738;9.092;2023-02-21T08:18:22;7.13;;;2.57;;
23302;SDS011;11820;48.738;9.092;2023-02-21T08:20:49;5.18;;;2.53;;
23302;SDS011;11820;48.738;9.092;2023-02-21T08:23:15;3.20;;;2.00;;
23302;SDS011;11820;48.738;9.092;2023-02-21T08:25:42;4.15;;;2.38;;
23302;SDS011;11820;48.738;9.092;2023-02-21T08:28:08;5.50;;;2.33;;
23302;SDS011;11820;48.738;9.092;2023-02-21T08:30:33;3.83;;;2.10;;
23302;SDS011;11820;48.738;9.092;2023-02-21T08:32:58;2.70;;;1.77;;
23302;SDS011;11820;48.738;9.092;2023-02-21T08:35:24;4.80;;;1.90;;
23302;SDS011;11820;48.738;9.092;2023-02-21T08:37:49;4.63;;;2.10;;
23302;SDS011;11820;48.738;9.092;2023-02-21T08:40:17;4.43;;;2.25;;
23302;SDS011;11820;48.738;9.092;2023-02-21T08:42:47;6.03;;;1.83;;
23302;SDS011;11820;48.738;9.092;2023-02-21T08:45:14;7.00;;;1.83;;
23302;SDS011;11820;48.738;9.092;2023-02-21T08:47:41;6.43;;;2.43;;
23302;SDS011;11820;48.738;9.092;2023-02-21T08:50:07;4.17;;;2.20;;
23302;SDS011;11820;48.738;9.092;2023-02-21T08:52:32;4.32;;;2.15;;
23302;SDS011;11820;48.738;9.092;2023-02-21T08:54:58;2.50;;;1.83;;
23302;SDS011;11820;48.738;9.092;2023-02-21T08:57:23;6.00;;;1.90;;
23302;SDS011;11820;48.738;9.092;2023-02-21T08:59:48;3.13;;;1.70;;
23302;SDS011;11820;48.738;9.092;2023-02-21T09:02:18;4.83;;;2.10;;
23302;SDS011;11820;48.738;9.092;2023-02-21T09:04:45;4.90;;;2.20;;
23302;SDS011;11820;48.738;9.092;2023-02-21T09:07:15;4.10;;;1.73;;
23302;SDS011;11820;48.738;9.092;2023-02-21T09:09:42;3.83;;;1.33;;
23302;SDS011;11820;48.738;9.092;2023-02-21T09:12:08;2.87;;;1.70;;
23302;SDS011;11820;48.738;9.092;2023-02-21T09:14:37;5.73;;;1.40;;
23302;SDS011;11820;48.738;9.092;2023-02-21T09:17:04;1.90;;;1.33;;
23302;SDS011;11820;48.738;9.092;2023-02-21T09:19:31;4.50;;;1.90;;
23302;SDS011;11820;48.738;9.092;2023-02-21T09:21:56;3.60;;;1.23;;
23302;SDS011;11820;48.738;9.092;2023-02-21T09:24:22;2.23;;;1.23;;
23302;SDS011;11820;48.738;9.092;2023-02-21T09:26:50;3.37;;;1.70;;
23302;SDS011;11820;48.738;9.092;2023-02-21T09:29:20;2.73;;;1.60;;
23302;SDS011;11820;48.738;9.092;2023-02-21T09:31:46;3.00;;;1.70;;
23302;SDS011;11820;48.738;9.092;2023-02-21T09:34:12;2.80;;;1.30;;
23302;SDS011;11820;48.738;9.092;2023-02-21T09:36:37;2.17;;;1.03;;
23302;SDS011;11820;48.738;9.092;2023-02-21T09:39:03;1.57;;;0.90;;
23302;SDS011;11820;48.738;9.092;2023-02-21T09:41:30;1.33;;;0.80;;
23302;SDS011;11820;48.738;9.092;2023-02-21T09:43:57;3.90;;;0.90;;
23302;SDS011;11820;48.738;9.092;2023-02-21T09:48:56;2.57;;;0.70;;
23302;SDS011;11820;48.738;9.092;2023-02-21T09:51:21;3.77;;;1.03;;
23302;SDS011;11820;48.738;9.092;2023-02-21T09:53:49;1.37;;;0.60;;
23302;SDS011;11820;48.738;9.092;2023-02-21T09:56:28;1.53;;;0.70;;
23302;SDS011;11820;48.738;9.092;2023-02-21T09:58:58;2.87;;;1.00;;
23302;SDS011;11820;48.738;9.092;2023-02-21T10:03:54;1.03;;;0.70;;
23302;SDS011;11820;48.738;9.092;2023-02-21T10:12:07;2.40;;;0.83;;
23302;SDS011;11820;48.738;9.092;2023-02-21T10:19:54;5.27;;;2.03;;
23302;SDS011;11820;48.738;9.092;2023-02-21T10:22:58;2.00;;;1.00;;
23302;SDS011;11820;48.738;9.092;2023-02-21T10:25:27;1.07;;;0.70;;
23302;SDS011;11820;48.738;9.092;2023-02-21T10:27:56;1.30;;;1.00;;
23302;SDS011;11820;48.738;9.092;2023-02-21T10:30:25;2.00;;;0.70;;
23302;SDS011;11820;48.738;9.092;2023-02-21T10:32:56;0.90;;;0.60;;
23302;SDS011;11820;48.738;9.092;2023-02-21T10:35:22;1.93;;;0.90;;
23302;SDS011;11820;48.738;9.092;2023-02-21T10:37:56;1.00;;;0.80;;
23302;SDS011;11820;48.738;9.092;2023-02-21T10:40:29;0.80;;;0.80;;
23302;SDS011;11820;48.738;9.092;2023-02-21T10:43:12;2.90;;;0.73;;
23302;SDS011;11820;48.738;9.092;2023-02-21T10:46:18;2.07;;;0.90;;
23302;SDS011;11820;48.738;9.092;2023-02-21T10:48:54;1.77;;;0.80;;
23302;SDS011;11820;48.738;9.092;2023-02-21T10:51:34;7.10;;;1.63;;
23302;SDS011;11820;48.738;9.092;2023-02-21T10:54:15;3.80;;;1.50;;
23302;SDS011;11820;48.738;9.092;2023-02-21T10:56:49;2.60;;;1.70;;
23302;SDS011;11820;48.738;9.092;2023-02-21T10:59:21;3.17;;;1.57;;
23302;SDS011;11820;48.738;9.092;2023-02-21T11:01:49;3.40;;;1.53;;
23302;SDS011;11820;48.738;9.092;2023-02-21T11:06:47;4.23;;;1.40;;
23302;SDS011;11820;48.738;9.092;2023-02-21T11:09:33;3.10;;;1.23;;
23302;SDS011;11820;48.738;9.092;2023-02-21T11:14:43;2.77;;;1.77;;
23302;SDS011;11820;48.738;9.092;2023-02-21T11:17:28;2.27;;;1.63;;
23302;SDS011;11820;48.738;9.092;2023-02-21T11:30:27;3.63;;;1.53;;
23302;SDS011;11820;48.738;9.092;2023-02-21T11:32:54;2.03;;;1.27;;
23302;SDS011;11820;48.738;9.092;2023-02-21T11:35:25;2.20;;;0.87;;
23302;SDS011;11820;48.738;9.092;2023-02-21T11:38:00;1.53;;;1.20;;
23302;SDS011;11820;48.738;9.092;2023-02-21T11:40:44;4.40;;;2.10;;
23302;SDS011;11820;48.738;9.092;2023-02-21T11:45:56;4.13;;;2.10;;
23302;SDS011;11820;48.738;9.092;2023-02-21T11:48:23;8.97;;;3.00;;
23302;SDS011;11820;48.738;9.092;2023-02-21T11:50:55;3.80;;;2.03;;
23302;SDS011;11820;48.738;9.092;2023-02-21T11:53:28;4.67;;;1.93;;
23302;SDS011;11820;48.738;9.092;2023-02-21T11:58:59;4.30;;;2.13;;
23302;SDS011;11820;48.738;9.092;2023-02-21T12:07:07;5.33;;;2.20;;
23302;SDS011;11820;48.738;9.092;2023-02-21T12:12:53;5.43;;;2.83;;
23302;SDS011;11820;48.738;9.092;2023-02-21T12:21:03;4.20;;;2.37;;
23302;SDS011;11820;48.738;9.092;2023-02-21T12:23:55;6.37;;;2.00;;
23302;SDS011;11820;48.738;9.092;2023-02-21T12:26:47;4.00;;;2.40;;
23302;SDS011;11820;48.738;9.092;2023-02-21T12:29:42;4.40;;;1.83;;
23302;SDS011;11820;48.738;9.092;2023-02-21T12:38:26;2.20;;;1.77;;
23302;SDS011;11820;48.738;9.092;2023-02-21T12:49:15;3.53;;;1.90;;
23302;SDS011;11820;48.738;9.092;2023-02-21T12:51:45;3.27;;;1.50;;
23302;SDS011;11820;48.738;9.092;2023-02-21T12:55:02;5.13;;;1.80;;
23302;SDS011;11820;48.738;9.092;2023-02-21T12:57:21;4.60;;;1.60;;
23302;SDS011;11820;48.738;9.092;2023-02-21T12:59:58;3.20;;;1.60;;
23302;SDS011;11820;48.738;9.092;2023-02-21T13:03:21;5.53;;;1.93;;
23302;SDS011;11820;48.738;9.092;2023-02-21T13:06:00;4.93;;;1.40;;
23302;SDS011;11820;48.738;9.092;2023-02-21T13:08:31;4.37;;;1.60;;
23302;SDS011;11820;48.738;9.092;2023-02-21T13:13:42;3.40;;;1.67;;
23302;SDS011;11820;48.738;9.092;2023-02-21T13:16:09;3.60;;;1.30;;
23302;SDS011;11820;48.738;9.092;2023-02-21T13:18:39;4.23;;;1.87;;
23302;SDS011;11820;48.738;9.092;2023-02-21T13:21:29;5.93;;;1.83;;
23302;SDS011;11820;48.738;9.092;2023-02-21T13:29:42;5.67;;;1.50;;
23302;SDS011;11820;48.738;9.092;2023-02-21T13:34:41;4.00;;;1.40;;
23302;SDS011;11820;48.738;9.092;2023-02-21T13:37:15;1.97;;;1.30;;
23302;SDS011;11820;48.738;9.092;2023-02-21T13:39:56;6.50;;;1.43;;
23302;SDS011;11820;48.738;9.092;2023-02-21T13:42:31;4.03;;;1.37;;
23302;SDS011;11820;48.738;9.092;2023-02-21T13:55:32;3.10;;;1.47;;
23302;SDS011;11820;48.738;9.092;2023-02-21T14:08:11;2.83;;;0.90;;
23302;SDS011;11820;48.738;9.092;2023-02-21T14:11:12;1.70;;;1.13;;
23302;SDS011;11820;48.738;9.092;2023-02-21T14:18:41;2.80;;;0.90;;
23302;SDS011;11820;48.738;9.092;2023-02-21T14:21:26;3.87;;;1.17;;
23302;SDS011;11820;48.738;9.092;2023-02-21T14:29:27;1.90;;;1.00;;
23302;SDS011;11820;48.738;9.092;2023-02-21T14:34:36;2.33;;;1.10;;
23302;SDS011;11820;48.738;9.092;2023-02-21T14:37:03;1.37;;;0.80;;
23302;SDS011;11820;48.738;9.092;2023-02-21T14:39:38;2.20;;;0.90;;
23302;SDS011;11820;48.738;9.092;2023-02-21T14:50:23;1.10;;;0.77;;
23302;SDS011;11820;48.738;9.092;2023-02-21T15:03:56;4.83;;;1.67;;
23302;SDS011;11820;48.738;9.092;2023-02-21T15:06:28;4.30;;;1.03;;
23302;SDS011;11820;48.738;9.092;2023-02-21T15:08:56;1.40;;;1.10;;
23302;SDS011;11820;48.738;9.092;2023-02-21T15:11:39;2.83;;;1.10;;
23302;SDS011;11820;48.738;9.092;2023-02-21T15:14:19;3.83;;;1.30;;
23302;SDS011;11820;48.738;9.092;2023-02-21T15:16:48;3.03;;;0.97;;
23302;SDS011;11820;48.738;9.092;2023-02-21T15:19:27;3.00;;;1.87;;
23302;SDS011;11820;48.738;9.092;2023-02-21T15:27:28;3.67;;;1.00;;
23302;SDS011;11820;48.738;9.092;2023-02-21T15:30:04;1.67;;;1.03;;
23302;SDS011;11820;48.738;9.092;2023-02-21T15:32:33;2.57;;;1.13;;
23302;SDS011;11820;48.738;9.092;2023-02-21T15:35:01;3.63;;;1.30;;
23302;SDS011;11820;48.738;9.092;2023-02-21T15:37:30;5.00;;;1.07;;
23302;SDS011;11820;48.738;9.092;2023-02-21T15:40:00;3.87;;;1.00;;
23302;SDS011;11820;48.738;9.092;2023-02-21T15:42:29;6.33;;;1.40;;
23302;SDS011;11820;48.738;9.092;2023-02-21T15:44:57;1.77;;;1.20;;
23302;SDS011;11820;48.738;9.092;2023-02-21T15:47:27;2.23;;;1.57;;
23302;SDS011;11820;48.738;9.092;2023-02-21T15:57:42;4.03;;;1.60;;
23302;SDS011;11820;48.738;9.092;2023-02-21T16:11:15;3.90;;;2.13;;
23302;SDS011;11820;48.738;9.092;2023-02-21T16:13:41;7.90;;;2.33;;
23302;SDS011;11820;48.738;9.092;2023-02-21T16:16:06;4.30;;;2.13;;
23302;SDS011;11820;48.738;9.092;2023-02-21T16:18:33;4.63;;;2.33;;
23302;SDS011;11820;48.738;9.092;2023-02-21T16:20:59;5.82;;;2.13;;
23302;SDS011;11820;48.738;9.092;2023-02-21T16:23:33;4.37;;;2.13;;
23302;SDS011;11820;48.738;9.092;2023-02-21T16:26:18;7.20;;;2.47;;
23302;SDS011;11820;48.738;9.092;2023-02-21T16:28:49;8.10;;;2.40;;
23302;SDS011;11820;48.738;9.092;2023-02-21T16:31:35;11.37;;;5.17;;
23302;SDS011;11820;48.738;9.092;2023-02-21T16:34:00;8.40;;;5.80;;
23302;SDS011;11820;48.738;9.092;2023-02-21T16:36:28;12.33;;;8.73;;
23302;SDS011;11820;48.738;9.092;2023-02-21T16:38:55;7.40;;;4.60;;
23302;SDS011;11820;48.738;9.092;2023-02-21T16:41:21;5.73;;;4.00;;
23302;SDS011;11820;48.738;9.092;2023-02-21T16:43:48;5.67;;;3.00;;
23302;SDS011;11820;48.738;9.092;2023-02-21T16:46:14;8.87;;;2.83;;
23302;SDS011;11820;48.738;9.092;2023-02-21T16:48:40;4.73;;;3.60;;
23302;SDS011;11820;48.738;9.092;2023-02-21T16:51:11;3.93;;;2.73;;
23302;SDS011;11820;48.738;9.092;2023-02-21T16:53:40;7.80;;;4.33;;
23302;SDS011;11820;48.738;9.092;2023-02-21T16:56:06;12.40;;;7.90;;
23302;SDS011;11820;48.738;9.092;2023-02-21T16:58:32;9.10;;;5.73;;
23302;SDS011;11820;48.738;9.092;2023-02-21T17:01:13;10.37;;;6.27;;
23302;SDS011;11820;48.738;9.092;2023-02-21T17:03:40;8.63;;;5.67;;
23302;SDS011;11820;48.738;9.092;2023-02-21T17:06:06;7.53;;;5.67;;
23302;SDS011;11820;48.738;9.092;2023-02-21T17:08:32;14.40;;;9.13;;
23302;SDS011;11820;48.738;9.092;2023-02-21T17:10:57;22.83;;;14.17;;
23302;SDS011;11820;48.738;9.092;2023-02-21T17:13:24;15.13;;;10.80;;
23302;SDS011;11820;48.738;9.092;2023-02-21T17:15:49;12.47;;;9.27;;
23302;SDS011;11820;48.738;9.092;2023-02-21T17:18:15;19.87;;;12.73;;
23302;SDS011;11820;48.738;9.092;2023-02-21T17:20:40;8.80;;;5.70;;
23302;SDS011;11820;48.738;9.092;2023-02-21T17:23:06;7.33;;;3.80;;
23302;SDS011;11820;48.738;9.092;2023-02-21T17:25:31;7.67;;;3.50;;
23302;SDS011;11820;48.738;9.092;2023-02-21T17:27:58;5.60;;;3.20;;
23302;SDS011;11820;48.738;9.092;2023-02-21T17:30:24;5.70;;;3.00;;
23302;SDS011;11820;48.738;9.092;2023-02-21T17:32:50;9.60;;;3.07;;
23302;SDS011;11820;48.738;9.092;2023-02-21T17:35:17;6.47;;;2.77;;
23302;SDS011;11820;48.738;9.092;2023-02-21T17:37:44;9.83;;;2.57;;
23302;SDS011;11820;48.738;9.092;2023-02-21T17:40:17;9.30;;;3.13;;
23302;SDS011;11820;48.738;9.092;2023-02-21T17:42:44;8.70;;;2.77;;
23302;SDS011;11820;48.738;9.092;2023-02-21T17:45:09;8.47;;;2.50;;
23302;SDS011;11820;48.738;9.092;2023-02-21T17:47:35;8.37;;;2.50;;
23302;SDS011;11820;48.738;9.092;2023-02-21T17:50:00;4.97;;;2.30;;
23302;SDS011;11820;48.738;9.092;2023-02-21T17:52:27;8.60;;;2.37;;
23302;SDS011;11820;48.738;9.092;2023-02-21T17:54:53;4.23;;;2.20;;
23302;SDS011;11820;48.738;9.092;2023-02-21T17:57:19;4.77;;;2.07;;
23302;SDS011;11820;48.738;9.092;2023-02-21T17:59:44;11.90;;;2.47;;
23302;SDS011;11820;48.738;9.092;2023-02-21T18:02:11;7.40;;;1.70;;
23302;SDS011;11820;48.738;9.092;2023-02-21T18:04:37;7.07;;;2.30;;
23302;SDS011;11820;48.738;9.092;2023-02-21T18:07:03;6.07;;;1.63;;
23302;SDS011;11820;48.738;9.092;2023-02-21T18:09:29;6.50;;;3.40;;
23302;SDS011;11820;48.738;9.092;2023-02-21T18:11:55;7.10;;;2.73;;
23302;SDS011;11820;48.738;9.092;2023-02-21T18:14:22;3.57;;;2.60;;
23302;SDS011;11820;48.738;9.092;2023-02-21T18:16:50;5.30;;;2.60;;
23302;SDS011;11820;48.738;9.092;2023-02-21T18:19:15;5.73;;;2.83;;
23302;SDS011;11820;48.738;9.092;2023-02-21T18:21:41;7.53;;;3.20;;